CheckWX is a tool to help pilots better visualize weather data.  It is not intended as a substitute for an official pre-flight weather briefing.

01:08:07 UTC

KPAM METAR
Tyndall AFB Airport
Panama City, Florida, USA
Current

17 mins ago

KPAM 240051Z AUTO 15015KT 7SM BKN006 22/21 A3002 RMK AO2 SLP169 $
Observed
Feb-24 @ 00:51 UTC
Wind
  • 150° at 15 KTS
Visibility
7 SM
Flight Rules
IFR
Cloud Levels
  • Broken at 600' AGL
Temperature
22°C / 72°F
Dewpoint
21°C / 70°F
Humidity
94%
Altimeter
30.02" Hg
Pressure
1016.9 hPa
Previous

1 hour ago

KPAM 232356Z AUTO 15013KT 7SM CLR 22/21 A3002 RMK AO2 SLP169 T02220208 10253 20222 $
Observed
Feb-23 @ 23:56 UTC
Wind
  • 150° at 13 KTS
Visibility
7 SM
Flight Rules
VFR
Cloud Levels
  • Clear skies
Temperature
22°C / 72°F
Dewpoint
21°C / 70°F
Humidity
94%
Altimeter
30.02" Hg
Pressure
1016.9 hPa
Previous

2 hours ago

KPAM 232256Z AUTO 15015KT 8SM CLR 24/21 A3002 RMK AO2 SLP169 T02360211 $
Observed
Feb-23 @ 22:56 UTC
Wind
  • 150° at 15 KTS
Visibility
8 SM
Flight Rules
VFR
Cloud Levels
  • Clear skies
Temperature
24°C / 75°F
Dewpoint
21°C / 70°F
Humidity
83%
Altimeter
30.02" Hg
Pressure
1016.9 hPa